Time,TemperatureF,DewpointF,PressureIn,WindDirection,WindDirectionDegrees,WindSpeedMPH,WindSpeedGustMPH,Humidity,HourlyPrecipIn,Conditions,Clouds,dailyrainin,SoftwareType,DateUTC
2013-01-08 00:00:00,19.5,17.6,30.33,NW,319,0.0,3.0,92,0.00,,---,0.00,VWS V14.01,2013-01-08 05:00:00,
2013-01-08 00:01:00,19.4,17.5,30.33,NW,319,1.0,1.0,92,0.00,,---,0.00,VWS V14.01,2013-01-08 05:01:00,
2013-01-08 00:03:00,19.5,17.6,30.33,NW,319,0.0,3.0,92,0.00,,---,0.00,VWS V14.01,2013-01-08 05:03:00,
2013-01-08 00:05:00,19.7,18.0,30.33,NW,319,0.0,1.0,93,0.00,,---,0.00,VWS V14.01,2013-01-08 05:05:00,
2013-01-08 00:08:00,19.7,18.0,30.33,NW,319,0.0,1.0,93,0.00,,---,0.00,VWS V14.01,2013-01-08 05:08:00,
2013-01-08 00:10:00,20.1,18.4,30.33,NW,319,0.0,1.0,93,0.00,,---,0.00,VWS V14.01,2013-01-08 05:10:00,
2013-01-08 00:13:00,20.1,18.4,30.33,NW,319,0.0,1.0,93,0.00,,---,0.00,VWS V14.01,2013-01-08 05:13:00,
2013-01-08 00:15:00,20.3,18.6,30.33,NW,319,0.0,1.0,93,0.00,,---,0.00,VWS V14.01,2013-01-08 05:15:00,
2013-01-08 00:19:00,20.3,18.6,30.33,NW,319,0.0,1.0,93,0.00,,---,0.00,VWS V14.01,2013-01-08 05:19:00,
2013-01-08 00:20:00,20.6,18.9,30.33,NW,319,0.0,3.0,93,0.00,,---,0.00,VWS V14.01,2013-01-08 05:20:00,
2013-01-08 00:24:00,20.6,18.9,30.33,NW,319,0.0,3.0,93,0.00,,---,0.00,VWS V14.01,2013-01-08 05:24:00,
2013-01-08 00:25:00,20.7,19.0,30.33,NW,319,0.0,1.0,93,0.00,,---,0.00,VWS V14.01,2013-01-08 05:25:00,
2013-01-08 00:29:00,20.7,19.0,30.33,NW,319,0.0,0.0,93,0.00,,---,0.00,VWS V14.01,2013-01-08 05:29:00,
2013-01-08 00:30:00,20.8,19.1,30.33,NW,319,1.0,2.0,93,0.00,,---,0.00,VWS V14.01,2013-01-08 05:30:00,
2013-01-08 00:34:00,20.8,19.1,30.33,NW,319,0.0,1.0,93,0.00,,---,0.00,VWS V14.01,2013-01-08 05:34:00,
2013-01-08 00:35:00,20.7,19.0,30.33,NW,319,0.0,1.0,93,0.00,,---,0.00,VWS V14.01,2013-01-08 05:35:00,
2013-01-08 00:39:00,20.6,18.6,30.33,NW,319,0.0,0.0,92,0.00,,---,0.00,VWS V14.01,2013-01-08 05:39:00,
2013-01-08 00:40:00,20.4,18.5,30.33,NW,319,0.0,0.0,92,0.00,,---,0.00,VWS V14.01,2013-01-08 05:40:00,
2013-01-08 00:44:00,20.3,18.4,30.33,NW,319,0.0,0.0,92,0.00,,---,0.00,VWS V14.01,2013-01-08 05:44:00,
2013-01-08 00:45:00,20.0,17.8,30.32,NW,319,0.0,0.0,91,0.00,,---,0.00,VWS V14.01,2013-01-08 05:45:00,
2013-01-08 00:49:00,20.0,17.8,30.32,NW,319,0.0,0.0,91,0.00,,---,0.00,VWS V14.01,2013-01-08 05:49:00,
2013-01-08 00:50:00,19.7,17.5,30.32,NW,319,0.0,0.0,91,0.00,,---,0.00,VWS V14.01,2013-01-08 05:50:00,
2013-01-08 00:54:00,19.7,17.5,30.32,NW,319,0.0,0.0,91,0.00,,---,0.00,VWS V14.01,2013-01-08 05:54:00,
2013-01-08 00:55:00,19.4,17.2,30.33,NW,319,0.0,0.0,91,0.00,,---,0.00,VWS V14.01,2013-01-08 05:55:00,
2013-01-08 00:59:00,19.4,17.2,30.32,NW,319,0.0,0.0,91,0.00,,---,0.00,VWS V14.01,2013-01-08 05:59:00,
2013-01-08 01:00:00,19.1,16.9,30.32,NW,319,0.0,0.0,91,0.00,,---,0.00,VWS V14.01,2013-01-08 06:00:00,
2013-01-08 01:04:00,19.1,17.2,30.32,NW,319,0.0,0.0,92,0.00,,---,0.00,VWS V14.01,2013-01-08 06:04:00,
2013-01-08 01:05:00,19.5,17.8,30.31,NW,319,0.0,2.0,93,0.00,,---,0.00,VWS V14.01,2013-01-08 06:05:00,
2013-01-08 01:09:00,19.6,17.9,30.32,NW,319,0.0,0.0,93,0.00,,---,0.00,VWS V14.01,2013-01-08 06:09:00,
2013-01-08 01:10:00,19.9,18.5,30.32,NW,319,0.0,1.0,94,0.00,,---,0.00,VWS V14.01,2013-01-08 06:10:00,
2013-01-08 01:14:00,20.0,18.5,30.32,NW,319,0.0,0.0,94,0.00,,---,0.00,VWS V14.01,2013-01-08 06:14:00,
2013-01-08 01:15:00,20.2,18.8,30.32,NW,319,0.0,1.0,94,0.00,,---,0.00,VWS V14.01,2013-01-08 06:15:00,
2013-01-08 01:19:00,20.2,18.8,30.32,NW,319,0.0,0.0,94,0.00,,---,0.00,VWS V14.01,2013-01-08 06:19:00,
2013-01-08 01:20:00,20.3,18.9,30.31,NW,319,0.0,1.0,94,0.00,,---,0.00,VWS V14.01,2013-01-08 06:20:00,
2013-01-08 01:24:00,20.4,19.0,30.31,NW,319,0.0,0.0,94,0.00,,---,0.00,VWS V14.01,2013-01-08 06:24:00,
2013-01-08 01:25:00,20.3,18.6,30.31,NW,319,0.0,1.0,93,0.00,,---,0.00,VWS V14.01,2013-01-08 06:25:00,
2013-01-08 01:29:00,20.3,18.6,30.32,NW,319,0.0,0.0,93,0.00,,---,0.00,VWS V14.01,2013-01-08 06:29:00,
2013-01-08 01:30:00,20.2,18.5,30.32,NW,319,0.0,0.0,93,0.00,,---,0.00,VWS V14.01,2013-01-08 06:30:00,
2013-01-08 01:34:00,20.1,18.4,30.31,NW,319,0.0,0.0,93,0.00,,---,0.00,VWS V14.01,2013-01-08 06:34:00,
2013-01-08 01:35:00,19.9,18.2,30.31,NW,319,0.0,0.0,93,0.00,,---,0.00,VWS V14.01,2013-01-08 06:35:00,
2013-01-08 01:39:00,19.8,18.1,30.31,NW,319,0.0,0.0,93,0.00,,---,0.00,VWS V14.01,2013-01-08 06:39:00,
2013-01-08 01:40:00,19.7,17.8,30.32,NW,319,0.0,0.0,92,0.00,,---,0.00,VWS V14.01,2013-01-08 06:40:00,
2013-01-08 01:44:00,19.7,17.8,30.31,NW,319,0.0,0.0,92,0.00,,---,0.00,VWS V14.01,2013-01-08 06:44:00,
2013-01-08 01:45:00,19.3,17.4,30.31,NW,319,0.0,0.0,92,0.00,,---,0.00,VWS V14.01,2013-01-08 06:45:00,
2013-01-08 01:50:00,19.3,17.4,30.31,NW,319,0.0,1.0,92,0.00,,---,0.00,VWS V14.01,2013-01-08 06:50:00,
2013-01-08 01:55:00,19.2,17.5,30.32,NW,319,0.0,0.0,93,0.00,,---,0.00,VWS V14.01,2013-01-08 06:55:00,
2013-01-08 02:00:00,19.0,17.1,30.32,NW,319,0.0,0.0,92,0.00,,---,0.00,VWS V14.01,2013-01-08 07:00:00,
2013-01-08 02:05:00,18.9,17.2,30.32,NW,319,0.0,0.0,93,0.00,,---,0.00,VWS V14.01,2013-01-08 07:05:00,
2013-01-08 02:10:00,19.0,17.3,30.31,NW,319,0.0,0.0,93,0.00,,---,0.00,VWS V14.01,2013-01-08 07:10:00,
2013-01-08 02:15:00,19.0,17.3,30.31,NW,319,0.0,0.0,93,0.00,,---,0.00,VWS V14.01,2013-01-08 07:15:00,
2013-01-08 02:20:00,18.8,17.1,30.32,NW,319,0.0,0.0,93,0.00,,---,0.00,VWS V14.01,2013-01-08 07:20:00,
2013-01-08 02:25:00,18.6,16.9,30.32,NW,319,0.0,0.0,93,0.00,,---,0.00,VWS V14.01,2013-01-08 07:25:00,
2013-01-08 02:30:00,18.5,16.8,30.32,NW,319,0.0,1.0,93,0.00,,---,0.00,VWS V14.01,2013-01-08 07:30:00,
2013-01-08 02:35:00,18.3,16.6,30.31,NW,319,0.0,0.0,93,0.00,,---,0.00,VWS V14.01,2013-01-08 07:35:00,
2013-01-08 02:40:00,18.1,16.4,30.31,NW,319,0.0,1.0,93,0.00,,---,0.00,VWS V14.01,2013-01-08 07:40:00,
2013-01-08 02:41:00,18.1,16.4,30.31,NW,319,0.0,1.0,93,0.00,,---,0.00,VWS V14.01,2013-01-08 07:41:00,
2013-01-08 02:45:00,18.0,16.3,30.31,NW,319,0.0,1.0,93,0.00,,---,0.00,VWS V14.01,2013-01-08 07:45:00,
2013-01-08 02:46:00,18.1,16.4,30.31,NW,319,0.0,1.0,93,0.00,,---,0.00,VWS V14.01,2013-01-08 07:46:00,
2013-01-08 02:50:00,17.9,16.2,30.31,NW,319,0.0,0.0,93,0.00,,---,0.00,VWS V14.01,2013-01-08 07:50:00,
2013-01-08 02:51:00,17.9,16.2,30.31,NW,319,0.0,0.0,93,0.00,,---,0.00,VWS V14.01,2013-01-08 07:51:00,
2013-01-08 02:55:00,17.8,16.1,30.31,NW,319,0.0,2.0,93,0.00,,---,0.00,VWS V14.01,2013-01-08 07:55:00,
2013-01-08 02:56:00,17.9,16.2,30.31,NW,319,0.0,1.0,93,0.00,,---,0.00,VWS V14.01,2013-01-08 07:56:00,
2013-01-08 03:00:00,17.6,15.9,30.31,NW,319,0.0,1.0,93,0.00,,---,0.00,VWS V14.01,2013-01-08 08:00:00,
2013-01-08 03:01:00,17.7,15.8,30.31,NW,319,0.0,1.0,92,0.00,,---,0.00,VWS V14.01,2013-01-08 08:01:00,
2013-01-08 03:05:00,17.4,15.5,30.31,NW,319,0.0,1.0,92,0.00,,---,0.00,VWS V14.01,2013-01-08 08:05:00,
2013-01-08 03:06:00,17.5,15.6,30.31,NW,319,0.0,0.0,92,0.00,,---,0.00,VWS V14.01,2013-01-08 08:06:00,
2013-01-08 03:10:00,17.6,15.9,30.30,NW,319,0.0,2.0,93,0.00,,---,0.00,VWS V14.01,2013-01-08 08:10:00,
2013-01-08 03:11:00,17.5,15.8,30.30,NW,319,0.0,1.0,93,0.00,,---,0.00,VWS V14.01,2013-01-08 08:11:00,
2013-01-08 03:15:00,18.1,16.7,30.30,NW,319,0.0,1.0,94,0.00,,---,0.00,VWS V14.01,2013-01-08 08:15:00,
2013-01-08 03:16:00,17.8,16.4,30.30,NW,319,0.0,0.0,94,0.00,,---,0.00,VWS V14.01,2013-01-08 08:16:00,
2013-01-08 03:20:00,18.6,17.2,30.30,NW,311,0.0,3.0,94,0.00,,---,0.00,VWS V14.01,2013-01-08 08:20:00,
2013-01-08 03:21:00,18.4,17.0,30.30,NW,319,0.0,2.0,94,0.00,,---,0.00,VWS V14.01,2013-01-08 08:21:00,
2013-01-08 03:25:00,19.7,18.5,30.30,NW,311,0.0,0.0,95,0.00,,---,0.00,VWS V14.01,2013-01-08 08:25:00,
2013-01-08 03:27:00,19.3,18.1,30.30,NW,311,0.0,0.0,95,0.00,,---,0.00,VWS V14.01,2013-01-08 08:27:00,
2013-01-08 03:30:00,20.1,18.9,30.30,NW,311,0.0,1.0,95,0.00,,---,0.00,VWS V14.01,2013-01-08 08:30:00,
2013-01-08 03:32:00,19.9,18.7,30.30,NW,311,0.0,1.0,95,0.00,,---,0.00,VWS V14.01,2013-01-08 08:32:00,
2013-01-08 03:35:00,20.4,19.2,30.29,NW,309,0.0,2.0,95,0.00,,---,0.00,VWS V14.01,2013-01-08 08:35:00,
2013-01-08 03:37:00,20.4,19.2,30.29,NW,309,0.0,2.0,95,0.00,,---,0.00,VWS V14.01,2013-01-08 08:37:00,
2013-01-08 03:40:00,20.7,19.5,30.29,NW,309,0.0,1.0,95,0.00,,---,0.00,VWS V14.01,2013-01-08 08:40:00,
2013-01-08 03:42:00,20.6,19.4,30.29,NW,309,0.0,1.0,95,0.00,,---,0.00,VWS V14.01,2013-01-08 08:42:00,
2013-01-08 03:45:00,21.0,19.8,30.29,NW,309,0.0,1.0,95,0.00,,---,0.00,VWS V14.01,2013-01-08 08:45:00,
2013-01-08 03:47:00,20.9,19.7,30.29,NW,309,0.0,0.0,95,0.00,,---,0.00,VWS V14.01,2013-01-08 08:47:00,
2013-01-08 03:50:00,21.0,19.8,30.29,NW,309,0.0,3.0,95,0.00,,---,0.00,VWS V14.01,2013-01-08 08:50:00,
2013-01-08 03:52:00,21.1,19.9,30.29,NW,309,0.0,3.0,95,0.00,,---,0.00,VWS V14.01,2013-01-08 08:52:00,
2013-01-08 03:55:00,21.2,20.0,30.28,NW,309,0.0,2.0,95,0.00,,---,0.00,VWS V14.01,2013-01-08 08:55:00,
2013-01-08 03:57:00,21.1,19.9,30.28,NW,309,0.0,2.0,95,0.00,,---,0.00,VWS V14.01,2013-01-08 08:57:00,
2013-01-08 04:00:00,21.2,20.0,30.28,NW,309,0.0,1.0,95,0.00,,---,0.00,VWS V14.01,2013-01-08 09:00:00,
2013-01-08 04:02:00,21.2,20.0,30.28,NW,309,0.0,1.0,95,0.00,,---,0.00,VWS V14.01,2013-01-08 09:02:00,
2013-01-08 04:05:00,21.2,20.0,30.28,NW,309,0.0,1.0,95,0.00,,---,0.00,VWS V14.01,2013-01-08 09:05:00,
2013-01-08 04:08:00,21.2,20.0,30.28,NW,309,0.0,1.0,95,0.00,,---,0.00,VWS V14.01,2013-01-08 09:08:00,
2013-01-08 04:10:00,21.0,19.5,30.28,NW,309,0.0,0.0,94,0.00,,---,0.00,VWS V14.01,2013-01-08 09:10:00,
2013-01-08 04:13:00,21.0,19.5,30.28,NW,309,0.0,0.0,94,0.00,,---,0.00,VWS V14.01,2013-01-08 09:13:00,
2013-01-08 04:15:00,20.9,19.5,30.28,NW,309,0.0,1.0,94,0.00,,---,0.00,VWS V14.01,2013-01-08 09:15:00,
2013-01-08 04:18:00,20.9,19.5,30.28,NW,309,0.0,1.0,94,0.00,,---,0.00,VWS V14.01,2013-01-08 09:18:00,
2013-01-08 04:20:00,20.8,19.4,30.28,NW,309,0.0,0.0,94,0.00,,---,0.00,VWS V14.01,2013-01-08 09:20:00,
2013-01-08 04:23:00,20.8,19.4,30.28,NW,309,0.0,0.0,94,0.00,,---,0.00,VWS V14.01,2013-01-08 09:23:00,
2013-01-08 04:25:00,20.8,19.4,30.28,NW,309,0.0,1.0,94,0.00,,---,0.00,VWS V14.01,2013-01-08 09:25:00,
2013-01-08 04:28:00,20.8,19.4,30.28,NW,309,0.0,1.0,94,0.00,,---,0.00,VWS V14.01,2013-01-08 09:28:00,
2013-01-08 04:30:00,20.8,19.4,30.28,NW,309,0.0,1.0,94,0.00,,---,0.00,VWS V14.01,2013-01-08 09:30:00,
2013-01-08 04:33:00,20.8,19.4,30.28,NW,309,0.0,1.0,94,0.00,,---,0.00,VWS V14.01,2013-01-08 09:33:00,
2013-01-08 04:35:00,20.7,19.2,30.28,NW,309,0.0,0.0,94,0.00,,---,0.00,VWS V14.01,2013-01-08 09:35:00,
2013-01-08 04:38:00,20.7,19.2,30.28,NW,309,0.0,0.0,94,0.00,,---,0.00,VWS V14.01,2013-01-08 09:38:00,
2013-01-08 04:40:00,20.7,19.2,30.28,NW,309,0.0,0.0,94,0.00,,---,0.00,VWS V14.01,2013-01-08 09:40:00,
2013-01-08 04:43:00,20.7,19.2,30.28,NW,309,0.0,0.0,94,0.00,,---,0.00,VWS V14.01,2013-01-08 09:43:00,
2013-01-08 04:45:00,20.9,19.7,30.28,NW,309,0.0,0.0,95,0.00,,---,0.00,VWS V14.01,2013-01-08 09:45:00,
2013-01-08 04:48:00,20.9,19.7,30.28,NW,309,0.0,0.0,95,0.00,,---,0.00,VWS V14.01,2013-01-08 09:48:00,
2013-01-08 04:50:00,20.9,19.5,30.27,NW,309,0.0,0.0,94,0.00,,---,0.00,VWS V14.01,2013-01-08 09:50:00,
2013-01-08 04:53:00,20.9,19.5,30.27,NW,309,0.0,0.0,94,0.00,,---,0.00,VWS V14.01,2013-01-08 09:53:00,
2013-01-08 04:55:00,21.0,19.8,30.27,NW,309,0.0,1.0,95,0.00,,---,0.00,VWS V14.01,2013-01-08 09:55:00,
2013-01-08 04:58:00,21.0,19.8,30.27,NW,309,0.0,1.0,95,0.00,,---,0.00,VWS V14.01,2013-01-08 09:58:00,
2013-01-08 05:00:00,21.1,19.6,30.27,NW,309,0.0,0.0,94,0.00,,---,0.00,VWS V14.01,2013-01-08 10:00:00,
2013-01-08 05:04:00,21.1,19.6,30.27,NW,309,0.0,0.0,94,0.00,,---,0.00,VWS V14.01,2013-01-08 10:04:00,
2013-01-08 05:05:00,21.2,20.0,30.27,NW,309,0.0,0.0,95,0.00,,---,0.00,VWS V14.01,2013-01-08 10:05:00,
2013-01-08 05:09:00,21.2,20.0,30.27,NW,309,0.0,0.0,95,0.00,,---,0.00,VWS V14.01,2013-01-08 10:09:00,
2013-01-08 05:10:00,21.2,20.0,30.27,NW,309,0.0,1.0,95,0.00,,---,0.00,VWS V14.01,2013-01-08 10:10:00,
2013-01-08 05:14:00,21.2,20.0,30.27,NW,309,0.0,0.0,95,0.00,,---,0.00,VWS V14.01,2013-01-08 10:14:00,
2013-01-08 05:15:00,21.0,19.5,30.27,NW,309,0.0,0.0,94,0.00,,---,0.00,VWS V14.01,2013-01-08 10:15:00,
2013-01-08 05:19:00,20.9,19.5,30.27,NW,309,0.0,0.0,94,0.00,,---,0.00,VWS V14.01,2013-01-08 10:19:00,
2013-01-08 05:20:00,20.8,19.4,30.27,NW,309,1.0,3.0,94,0.00,,---,0.00,VWS V14.01,2013-01-08 10:20:00,
2013-01-08 05:24:00,20.7,19.2,30.27,NW,309,1.0,2.0,94,0.00,,---,0.00,VWS V14.01,2013-01-08 10:24:00,
2013-01-08 05:25:00,20.7,19.2,30.27,NW,306,0.0,2.0,94,0.00,,---,0.00,VWS V14.01,2013-01-08 10:25:00,
2013-01-08 05:29:00,20.8,19.4,30.27,NW,306,0.0,1.0,94,0.00,,---,0.00,VWS V14.01,2013-01-08 10:29:00,
2013-01-08 05:30:00,20.9,19.7,30.27,NW,306,0.0,1.0,95,0.00,,---,0.00,VWS V14.01,2013-01-08 10:30:00,
2013-01-08 05:34:00,21.0,19.8,30.27,NW,306,0.0,0.0,95,0.00,,---,0.00,VWS V14.01,2013-01-08 10:34:00,
2013-01-08 05:35:00,20.9,19.5,30.27,NW,306,0.0,2.0,94,0.00,,---,0.00,VWS V14.01,2013-01-08 10:35:00,
2013-01-08 05:39:00,20.9,19.5,30.27,NW,306,0.0,0.0,94,0.00,,---,0.00,VWS V14.01,2013-01-08 10:39:00,
2013-01-08 05:40:00,20.8,19.4,30.27,NW,306,0.0,0.0,94,0.00,,---,0.00,VWS V14.01,2013-01-08 10:40:00,
2013-01-08 05:44:00,20.7,19.2,30.27,NW,306,0.0,0.0,94,0.00,,---,0.00,VWS V14.01,2013-01-08 10:44:00,
2013-01-08 05:45:00,20.6,19.1,30.27,NW,306,0.0,0.0,94,0.00,,---,0.00,VWS V14.01,2013-01-08 10:45:00,
2013-01-08 05:49:00,20.5,19.0,30.27,NW,306,0.0,0.0,94,0.00,,---,0.00,VWS V14.01,2013-01-08 10:49:00,
2013-01-08 05:50:00,20.3,18.6,30.27,NW,306,0.0,0.0,93,0.00,,---,0.00,VWS V14.01,2013-01-08 10:50:00,
2013-01-08 05:55:00,20.2,18.5,30.27,NW,306,0.0,0.0,93,0.00,,---,0.00,VWS V14.01,2013-01-08 10:55:00,
2013-01-08 06:00:00,20.0,18.3,30.27,NW,306,0.0,0.0,93,0.00,,---,0.00,VWS V14.01,2013-01-08 11:00:00,
2013-01-08 06:05:00,19.9,18.5,30.27,NW,306,0.0,0.0,94,0.00,,---,0.00,VWS V14.01,2013-01-08 11:05:00,
2013-01-08 06:10:00,19.7,18.3,30.27,NW,306,0.0,0.0,94,0.00,,---,0.00,VWS V14.01,2013-01-08 11:10:00,
2013-01-08 06:15:00,19.7,18.3,30.27,NW,306,0.0,0.0,94,0.00,,---,0.00,VWS V14.01,2013-01-08 11:15:00,
2013-01-08 06:20:00,19.7,18.3,30.27,NW,306,0.0,0.0,94,0.00,,---,0.00,VWS V14.01,2013-01-08 11:20:00,
2013-01-08 06:25:00,19.5,18.1,30.27,NW,306,0.0,0.0,94,0.00,,---,0.00,VWS V14.01,2013-01-08 11:25:00,
2013-01-08 06:30:00,19.4,18.0,30.27,NW,306,0.0,0.0,94,0.00,,---,0.00,VWS V14.01,2013-01-08 11:30:00,
2013-01-08 06:35:00,19.2,17.5,30.27,NW,306,0.0,0.0,93,0.00,,---,0.00,VWS V14.01,2013-01-08 11:35:00,
2013-01-08 06:40:00,18.9,17.2,30.28,NW,306,0.0,0.0,93,0.00,,---,0.00,VWS V14.01,2013-01-08 11:40:00,
2013-01-08 06:41:00,19.0,17.3,30.27,NW,306,0.0,0.0,93,0.00,,---,0.00,VWS V14.01,2013-01-08 11:41:00,
2013-01-08 06:45:00,18.8,17.1,30.27,NW,306,0.0,0.0,93,0.00,,---,0.00,VWS V14.01,2013-01-08 11:45:00,
2013-01-08 06:46:00,18.9,17.2,30.27,NW,306,0.0,0.0,93,0.00,,---,0.00,VWS V14.01,2013-01-08 11:46:00,
2013-01-08 06:50:00,18.9,17.5,30.28,NW,306,0.0,0.0,94,0.00,,---,0.00,VWS V14.01,2013-01-08 11:50:00,
2013-01-08 06:51:00,18.9,17.5,30.28,NW,306,0.0,0.0,94,0.00,,---,0.00,VWS V14.01,2013-01-08 11:51:00,
2013-01-08 06:55:00,18.8,17.4,30.28,NW,306,0.0,0.0,94,0.00,,---,0.00,VWS V14.01,2013-01-08 11:55:00,
2013-01-08 06:56:00,18.9,17.5,30.28,NW,306,0.0,0.0,94,0.00,,---,0.00,VWS V14.01,2013-01-08 11:56:00,
2013-01-08 07:00:00,18.6,16.9,30.28,NW,306,0.0,0.0,93,0.00,,---,0.00,VWS V14.01,2013-01-08 12:00:00,
2013-01-08 07:01:00,18.8,17.1,30.28,NW,306,0.0,0.0,93,0.00,,---,0.00,VWS V14.01,2013-01-08 12:01:00,
2013-01-08 07:05:00,18.5,16.8,30.28,NW,306,0.0,0.0,93,0.00,,---,0.00,VWS V14.01,2013-01-08 12:05:00,
2013-01-08 07:06:00,18.5,16.8,30.28,NW,306,0.0,0.0,93,0.00,,---,0.00,VWS V14.01,2013-01-08 12:06:00,
2013-01-08 07:10:00,18.3,16.6,30.28,NW,306,0.0,0.0,93,0.00,,---,0.00,VWS V14.01,2013-01-08 12:10:00,
2013-01-08 07:11:00,18.4,16.7,30.28,NW,306,0.0,0.0,93,0.00,,---,0.00,VWS V14.01,2013-01-08 12:11:00,
2013-01-08 07:15:00,18.2,16.5,30.28,NW,306,0.0,3.0,93,0.00,,---,0.00,VWS V14.01,2013-01-08 12:15:00,
2013-01-08 07:16:00,18.2,16.5,30.28,NW,306,0.0,3.0,93,0.00,,---,0.00,VWS V14.01,2013-01-08 12:16:00,
2013-01-08 07:20:00,18.2,16.8,30.28,NW,306,0.0,2.0,94,0.00,,---,0.00,VWS V14.01,2013-01-08 12:20:00,
2013-01-08 07:22:00,18.2,16.5,30.28,NW,306,0.0,2.0,93,0.00,,---,0.00,VWS V14.01,2013-01-08 12:22:00,
2013-01-08 07:25:00,18.3,16.9,30.28,NW,306,0.0,1.0,94,0.00,,---,0.00,VWS V14.01,2013-01-08 12:25:00,
2013-01-08 07:27:00,18.2,16.5,30.28,NW,306,0.0,1.0,93,0.00,,---,0.00,VWS V14.01,2013-01-08 12:27:00,
2013-01-08 07:30:00,18.4,17.0,30.29,NW,306,2.0,3.0,94,0.00,,---,0.00,VWS V14.01,2013-01-08 12:30:00,
2013-01-08 07:32:00,18.4,17.0,30.28,NW,306,0.0,0.0,94,0.00,,---,0.00,VWS V14.01,2013-01-08 12:32:00,
2013-01-08 07:35:00,18.4,17.0,30.29,NW,306,0.0,2.0,94,0.00,,---,0.00,VWS V14.01,2013-01-08 12:35:00,
2013-01-08 07:37:00,18.4,17.0,30.29,NW,306,0.0,2.0,94,0.00,,---,0.00,VWS V14.01,2013-01-08 12:37:00,
2013-01-08 07:40:00,18.4,17.0,30.29,NW,306,0.0,2.0,94,0.00,,---,0.00,VWS V14.01,2013-01-08 12:40:00,
2013-01-08 07:42:00,18.5,17.1,30.29,NW,306,0.0,1.0,94,0.00,,---,0.00,VWS V14.01,2013-01-08 12:42:00,
2013-01-08 07:45:00,18.4,17.0,30.29,NW,306,0.0,2.0,94,0.00,,---,0.00,VWS V14.01,2013-01-08 12:45:00,
2013-01-08 07:47:00,18.4,17.0,30.29,NW,306,1.0,2.0,94,0.00,,---,0.00,VWS V14.01,2013-01-08 12:47:00,
2013-01-08 07:50:00,18.5,17.1,30.29,NW,304,2.0,3.0,94,0.00,,---,0.00,VWS V14.01,2013-01-08 12:50:00,
2013-01-08 07:52:00,18.5,17.1,30.29,NW,304,2.0,3.0,94,0.00,,---,0.00,VWS V14.01,2013-01-08 12:52:00,
2013-01-08 07:55:00,18.9,17.7,30.30,SW,217,5.0,5.0,95,0.00,,---,0.00,VWS V14.01,2013-01-08 12:55:00,
2013-01-08 07:57:00,18.8,17.4,30.30,WNW,285,4.0,4.0,94,0.00,,---,0.00,VWS V14.01,2013-01-08 12:57:00,
2013-01-08 08:00:00,19.7,18.5,30.30,SW,224,3.0,6.0,95,0.00,,---,0.00,VWS V14.01,2013-01-08 13:00:00,
2013-01-08 08:02:00,19.5,18.3,30.30,SW,215,2.0,6.0,95,0.00,,---,0.00,VWS V14.01,2013-01-08 13:02:00,
2013-01-08 08:05:00,21.6,20.6,30.30,SSW,200,3.0,8.0,96,0.00,,---,0.00,VWS V14.01,2013-01-08 13:05:00,
2013-01-08 08:08:00,21.1,20.1,30.30,SW,215,5.0,8.0,96,0.00,,---,0.00,VWS V14.01,2013-01-08 13:08:00,
2013-01-08 08:10:00,23.1,22.4,30.30,SW,234,3.0,11.0,97,0.00,,---,0.00,VWS V14.01,2013-01-08 13:10:00,
2013-01-08 08:13:00,23.0,22.3,30.30,SW,227,3.0,11.0,97,0.00,,---,0.00,VWS V14.01,2013-01-08 13:13:00,
2013-01-08 08:15:00,24.6,23.9,30.30,SSW,200,2.0,7.0,97,0.00,,---,0.00,VWS V14.01,2013-01-08 13:15:00,
2013-01-08 08:18:00,24.5,23.8,30.30,SSW,200,2.0,7.0,97,0.00,,---,0.00,VWS V14.01,2013-01-08 13:18:00,
2013-01-08 08:20:00,25.9,25.2,30.30,SW,219,4.0,10.0,97,0.00,,---,0.00,VWS V14.01,2013-01-08 13:20:00,
2013-01-08 08:23:00,25.8,25.1,30.30,SW,232,1.0,10.0,97,0.00,,---,0.00,VWS V14.01,2013-01-08 13:23:00,
2013-01-08 08:25:00,26.7,25.7,30.30,SW,236,3.0,7.0,96,0.00,,---,0.00,VWS V14.01,2013-01-08 13:25:00,
2013-01-08 08:28:00,26.7,26.0,30.30,SW,236,1.0,7.0,97,0.00,,---,0.00,VWS V14.01,2013-01-08 13:28:00,
2013-01-08 08:30:00,27.5,26.3,30.31,SSW,212,5.0,8.0,95,0.00,,---,0.00,VWS V14.01,2013-01-08 13:30:00,
2013-01-08 08:33:00,27.5,26.3,30.31,SSW,200,5.0,8.0,95,0.00,,---,0.00,VWS V14.01,2013-01-08 13:33:00,
2013-01-08 08:35:00,27.9,26.4,30.31,SW,215,2.0,9.0,94,0.00,,---,0.00,VWS V14.01,2013-01-08 13:35:00,
2013-01-08 08:38:00,28.0,26.5,30.31,SW,215,4.0,9.0,94,0.00,,---,0.00,VWS V14.01,2013-01-08 13:38:00,
2013-01-08 08:40:00,28.6,26.8,30.30,SSW,212,3.0,7.0,93,0.00,,---,0.00,VWS V14.01,2013-01-08 13:40:00,
2013-01-08 08:43:00,28.6,26.8,30.30,SW,219,2.0,7.0,93,0.00,,---,0.00,VWS V14.01,2013-01-08 13:43:00,
2013-01-08 08:45:00,29.5,27.2,30.30,SSW,211,5.0,8.0,91,0.00,,---,0.00,VWS V14.01,2013-01-08 13:45:00,
2013-01-08 08:48:00,29.4,27.1,30.30,WSW,254,4.0,8.0,91,0.00,,---,0.00,VWS V14.01,2013-01-08 13:48:00,
2013-01-08 08:50:00,30.1,27.5,30.31,SSW,205,2.0,8.0,90,0.00,,---,0.00,VWS V14.01,2013-01-08 13:50:00,
2013-01-08 08:53:00,30.1,27.5,30.31,SSW,205,5.0,8.0,90,0.00,,---,0.00,VWS V14.01,2013-01-08 13:53:00,
2013-01-08 08:55:00,30.7,27.6,30.31,SSW,207,7.0,10.0,88,0.00,,---,0.00,VWS V14.01,2013-01-08 13:55:00,
2013-01-08 08:58:00,30.6,27.5,30.31,SW,226,6.0,10.0,88,0.00,,---,0.00,VWS V14.01,2013-01-08 13:58:00,
2013-01-08 09:00:00,31.4,27.7,30.30,South,174,7.0,17.0,86,0.00,,---,0.00,VWS V14.01,2013-01-08 14:00:00,
2013-01-08 09:03:00,31.4,27.7,30.30,SW,223,9.0,17.0,86,0.00,,---,0.00,VWS V14.01,2013-01-08 14:03:00,
2013-01-08 09:05:00,32.2,27.9,30.30,West,271,6.0,12.0,84,0.00,,---,0.00,VWS V14.01,2013-01-08 14:05:00,
2013-01-08 09:09:00,32.2,27.9,30.30,West,271,6.0,12.0,84,0.00,,---,0.00,VWS V14.01,2013-01-08 14:09:00,
2013-01-08 09:10:00,32.8,27.9,30.30,WSW,237,4.0,13.0,82,0.00,,---,0.00,VWS V14.01,2013-01-08 14:10:00,
2013-01-08 09:14:00,32.8,27.9,30.30,WSW,237,4.0,13.0,82,0.00,,---,0.00,VWS V14.01,2013-01-08 14:14:00,
2013-01-08 09:15:00,33.3,27.8,30.31,WSW,247,7.0,8.0,80,0.00,,---,0.00,VWS V14.01,2013-01-08 14:15:00,
2013-01-08 09:19:00,33.3,27.8,30.31,WSW,247,7.0,8.0,80,0.00,,---,0.00,VWS V14.01,2013-01-08 14:19:00,
2013-01-08 09:20:00,33.8,28.0,30.30,SSW,213,6.0,10.0,79,0.00,,---,0.00,VWS V14.01,2013-01-08 14:20:00,
2013-01-08 09:24:00,33.8,28.0,30.30,SSW,213,6.0,10.0,79,0.00,,---,0.00,VWS V14.01,2013-01-08 14:24:00,
2013-01-08 09:25:00,34.4,28.3,30.31,SW,223,2.0,9.0,78,0.00,,---,0.00,VWS V14.01,2013-01-08 14:25:00,
2013-01-08 09:29:00,34.4,28.3,30.31,SW,223,2.0,9.0,78,0.00,,---,0.00,VWS V14.01,2013-01-08 14:29:00,
2013-01-08 09:30:00,34.9,28.1,30.31,SW,219,7.0,10.0,76,0.00,,---,0.00,VWS V14.01,2013-01-08 14:30:00,
2013-01-08 09:34:00,34.9,28.1,30.31,SW,219,7.0,10.0,76,0.00,,---,0.00,VWS V14.01,2013-01-08 14:34:00,
2013-01-08 09:35:00,35.2,27.8,30.30,SW,217,5.0,12.0,74,0.00,,---,0.00,VWS V14.01,2013-01-08 14:35:00,
2013-01-08 09:39:00,35.2,27.8,30.30,SW,217,5.0,12.0,74,0.00,,---,0.00,VWS V14.01,2013-01-08 14:39:00,
2013-01-08 09:40:00,35.6,28.1,30.30,West,260,10.0,13.0,74,0.00,,---,0.00,VWS V14.01,2013-01-08 14:40:00,
2013-01-08 09:44:00,35.6,28.1,30.30,West,260,10.0,13.0,74,0.00,,---,0.00,VWS V14.01,2013-01-08 14:44:00,
2013-01-08 09:45:00,35.9,27.8,30.30,SW,234,5.0,11.0,72,0.00,,---,0.00,VWS V14.01,2013-01-08 14:45:00,
2013-01-08 09:49:00,35.9,27.8,30.30,SW,234,5.0,11.0,72,0.00,,---,0.00,VWS V14.01,2013-01-08 14:49:00,
2013-01-08 09:50:00,36.2,28.1,30.30,WSW,251,7.0,11.0,72,0.00,,---,0.00,VWS V14.01,2013-01-08 14:50:00,
2013-01-08 09:54:00,36.2,28.1,30.30,WSW,251,7.0,11.0,72,0.00,,---,0.00,VWS V14.01,2013-01-08 14:54:00,
2013-01-08 09:55:00,36.5,28.0,30.30,WSW,242,8.0,13.0,71,0.00,,---,0.00,VWS V14.01,2013-01-08 14:55:00,
2013-01-08 09:59:00,36.5,28.0,30.30,WSW,256,7.0,8.0,71,0.00,,---,0.00,VWS V14.01,2013-01-08 14:59:00,
2013-01-08 10:00:00,36.8,28.0,30.30,SW,215,8.0,12.0,70,0.00,,---,0.00,VWS V14.01,2013-01-08 15:00:00,
2013-01-08 10:04:00,36.9,28.0,30.30,SW,236,12.0,12.0,70,0.00,,---,0.00,VWS V14.01,2013-01-08 15:04:00,
2013-01-08 10:05:00,37.3,28.1,30.30,South,169,4.0,14.0,69,0.00,,---,0.00,VWS V14.01,2013-01-08 15:05:00,
2013-01-08 10:09:00,37.3,28.1,30.29,West,269,11.0,12.0,69,0.00,,---,0.00,VWS V14.01,2013-01-08 15:09:00,
2013-01-08 10:10:00,37.7,28.1,30.29,WSW,258,5.0,17.0,68,0.00,,---,0.00,VWS V14.01,2013-01-08 15:10:00,
2013-01-08 10:14:00,37.7,28.1,30.29,WSW,252,6.0,8.0,68,0.00,,---,0.00,VWS V14.01,2013-01-08 15:14:00,
2013-01-08 10:15:00,38.1,28.5,30.29,South,182,10.0,13.0,68,0.00,,---,0.00,VWS V14.01,2013-01-08 15:15:00,
2013-01-08 10:19:00,38.2,28.6,30.29,SW,216,8.0,10.0,68,0.00,,---,0.00,VWS V14.01,2013-01-08 15:19:00,
2013-01-08 10:20:00,38.4,28.0,30.29,WSW,244,10.0,13.0,66,0.00,,---,0.00,VWS V14.01,2013-01-08 15:20:00,
2013-01-08 10:24:00,38.5,28.1,30.29,SW,221,8.0,11.0,66,0.00,,---,0.00,VWS V14.01,2013-01-08 15:24:00,
2013-01-08 10:25:00,38.8,28.4,30.29,SW,220,8.0,14.0,66,0.00,,---,0.00,VWS V14.01,2013-01-08 15:25:00,
2013-01-08 10:29:00,38.8,28.1,30.29,SW,226,9.0,9.0,65,0.00,,---,0.00,VWS V14.01,2013-01-08 15:29:00,
2013-01-08 10:30:00,39.0,28.2,30.29,WSW,239,8.0,13.0,65,0.00,,---,0.00,VWS V14.01,2013-01-08 15:30:00,
2013-01-08 10:34:00,39.1,28.0,30.29,SW,229,5.0,10.0,64,0.00,,---,0.00,VWS V14.01,2013-01-08 15:34:00,
2013-01-08 10:35:00,39.3,28.5,30.29,West,269,7.0,15.0,65,0.00,,---,0.00,VWS V14.01,2013-01-08 15:35:00,
2013-01-08 10:39:00,39.4,28.2,30.29,SW,227,7.0,8.0,64,0.00,,---,0.00,VWS V14.01,2013-01-08 15:39:00,
2013-01-08 10:40:00,39.8,28.2,30.28,SW,226,12.0,17.0,63,0.00,,---,0.00,VWS V14.01,2013-01-08 15:40:00,
2013-01-08 10:44:00,39.9,28.3,30.28,SSW,202,7.0,12.0,63,0.00,,---,0.00,VWS V14.01,2013-01-08 15:44:00,
2013-01-08 10:45:00,40.2,28.6,30.28,WSW,252,4.0,12.0,63,0.00,,---,0.00,VWS V14.01,2013-01-08 15:45:00,
2013-01-08 10:49:00,40.2,28.6,30.28,SW,232,5.0,5.0,63,0.00,,---,0.00,VWS V14.01,2013-01-08 15:49:00,
2013-01-08 10:50:00,40.5,28.9,30.28,SSW,208,2.0,10.0,63,0.00,,---,0.00,VWS V14.01,2013-01-08 15:50:00,
2013-01-08 10:54:00,40.6,29.0,30.28,SW,227,7.0,7.0,63,0.00,,---,0.00,VWS V14.01,2013-01-08 15:54:00,
2013-01-08 10:55:00,40.9,28.9,30.28,South,175,5.0,11.0,62,0.00,,---,0.00,VWS V14.01,2013-01-08 15:55:00,
2013-01-08 11:00:00,41.0,29.0,30.27,SSW,196,4.0,8.0,62,0.00,,---,0.00,VWS V14.01,2013-01-08 16:00:00,
2013-01-08 11:05:00,41.3,28.5,30.27,WSW,248,6.0,13.0,60,0.00,,---,0.00,VWS V14.01,2013-01-08 16:05:00,
2013-01-08 11:10:00,41.6,28.8,30.27,West,260,11.0,13.0,60,0.00,,---,0.00,VWS V14.01,2013-01-08 16:10:00,
2013-01-08 11:15:00,41.6,28.4,30.26,WSW,240,16.0,16.0,59,0.00,,---,0.00,VWS V14.01,2013-01-08 16:15:00,
2013-01-08 11:20:00,41.5,28.3,30.26,South,190,4.0,6.0,59,0.00,,---,0.00,VWS V14.01,2013-01-08 16:20:00,
2013-01-08 11:25:00,41.5,28.3,30.26,SW,225,3.0,7.0,59,0.00,,---,0.00,VWS V14.01,2013-01-08 16:25:00,
2013-01-08 11:30:00,41.8,28.5,30.26,SSW,201,6.0,9.0,59,0.00,,---,0.00,VWS V14.01,2013-01-08 16:30:00,
2013-01-08 11:35:00,42.2,28.9,30.25,SW,223,4.0,8.0,59,0.00,,---,0.00,VWS V14.01,2013-01-08 16:35:00,
2013-01-08 11:40:00,42.5,28.4,30.25,SW,214,3.0,9.0,57,0.00,,---,0.00,VWS V14.01,2013-01-08 16:40:00,
2013-01-08 11:45:00,43.0,28.4,30.25,SW,226,5.0,7.0,56,0.00,,---,0.00,VWS V14.01,2013-01-08 16:45:00,
2013-01-08 11:50:00,43.3,28.2,30.24,SW,225,7.0,16.0,55,0.00,,---,0.00,VWS V14.01,2013-01-08 16:50:00,
2013-01-08 11:55:00,43.3,27.8,30.24,SW,225,9.0,15.0,54,0.00,,---,0.00,VWS V14.01,2013-01-08 16:55:00,
2013-01-08 12:00:00,43.7,28.2,30.24,SW,225,7.0,12.0,54,0.00,,---,0.00,VWS V14.01,2013-01-08 17:00:00,
2013-01-08 12:05:00,44.1,27.6,30.24,WSW,248,8.0,15.0,52,0.00,,---,0.00,VWS V14.01,2013-01-08 17:05:00,
2013-01-08 12:10:00,44.5,28.5,30.24,WSW,248,8.0,14.0,53,0.00,,---,0.00,VWS V14.01,2013-01-08 17:10:00,
2013-01-08 12:15:00,44.8,28.3,30.24,WSW,248,8.0,14.0,52,0.00,,---,0.00,VWS V14.01,2013-01-08 17:15:00,
2013-01-08 12:20:00,45.0,28.0,30.24,SW,225,6.0,13.0,51,0.00,,---,0.00,VWS V14.01,2013-01-08 17:20:00,
2013-01-08 12:25:00,45.0,27.5,30.23,SW,225,6.0,14.0,50,0.00,,---,0.00,VWS V14.01,2013-01-08 17:25:00,
2013-01-08 12:30:00,44.9,27.4,30.23,SW,225,7.0,13.0,50,0.00,,---,0.00,VWS V14.01,2013-01-08 17:30:00,
2013-01-08 12:35:00,45.0,28.0,30.24,SW,225,5.0,11.0,51,0.00,,---,0.00,VWS V14.01,2013-01-08 17:35:00,
2013-01-08 12:40:00,45.0,28.0,30.24,SW,225,4.0,13.0,51,0.00,,---,0.00,VWS V14.01,2013-01-08 17:40:00,
2013-01-08 12:45:00,45.1,27.6,30.24,WSW,248,6.0,14.0,50,0.00,,---,0.00,VWS V14.01,2013-01-08 17:45:00,
2013-01-08 12:50:00,45.2,27.7,30.23,SW,225,5.0,9.0,50,0.00,,---,0.00,VWS V14.01,2013-01-08 17:50:00,
2013-01-08 12:55:00,45.3,27.3,30.23,WSW,248,5.0,10.0,49,0.00,,---,0.00,VWS V14.01,2013-01-08 17:55:00,
2013-01-08 13:00:00,45.3,27.8,30.23,WSW,248,6.0,11.0,50,0.00,,---,0.00,VWS V14.01,2013-01-08 18:00:00,
2013-01-08 13:05:00,45.2,27.7,30.23,WSW,248,5.0,10.0,50,0.00,,---,0.00,VWS V14.01,2013-01-08 18:05:00,
2013-01-08 13:10:00,45.0,27.5,30.23,West,270,6.0,12.0,50,0.00,,---,0.00,VWS V14.01,2013-01-08 18:10:00,
2013-01-08 13:15:00,44.9,27.9,30.23,WNW,292,5.0,12.0,51,0.00,,---,0.00,VWS V14.01,2013-01-08 18:15:00,
2013-01-08 13:20:00,44.9,27.9,30.23,SW,225,5.0,9.0,51,0.00,,---,0.00,VWS V14.01,2013-01-08 18:20:00,
2013-01-08 13:25:00,44.8,27.3,30.23,SW,225,6.0,14.0,50,0.00,,---,0.00,VWS V14.01,2013-01-08 18:25:00,
2013-01-08 13:30:00,44.6,27.6,30.23,SW,225,5.0,10.0,51,0.00,,---,0.00,VWS V14.01,2013-01-08 18:30:00,
2013-01-08 13:35:00,44.5,27.5,30.23,WSW,248,5.0,11.0,51,0.00,,---,0.00,VWS V14.01,2013-01-08 18:35:00,
2013-01-08 13:40:00,44.5,27.5,30.23,WSW,248,6.0,12.0,51,0.00,,---,0.00,VWS V14.01,2013-01-08 18:40:00,
2013-01-08 13:45:00,44.6,28.1,30.23,SW,225,4.0,9.0,52,0.00,,---,0.00,VWS V14.01,2013-01-08 18:45:00,
2013-01-08 13:50:00,44.6,27.6,30.23,West,270,4.0,7.0,51,0.00,,---,0.00,VWS V14.01,2013-01-08 18:50:00,
2013-01-08 13:55:00,44.7,28.2,30.23,SW,225,5.0,8.0,52,0.00,,---,0.00,VWS V14.01,2013-01-08 18:55:00,
2013-01-08 14:00:00,44.6,28.1,30.24,West,270,5.0,12.0,52,0.00,,---,0.00,VWS V14.01,2013-01-08 19:00:00,
2013-01-08 14:05:00,44.4,27.4,30.24,WSW,248,5.0,11.0,51,0.00,,---,0.00,VWS V14.01,2013-01-08 19:05:00,
2013-01-08 14:10:00,44.3,27.3,30.24,SW,225,6.0,14.0,51,0.00,,---,0.00,VWS V14.01,2013-01-08 19:10:00,
2013-01-08 14:15:00,44.3,27.3,30.24,SW,225,4.0,9.0,51,0.00,,---,0.00,VWS V14.01,2013-01-08 19:15:00,
2013-01-08 14:20:00,44.3,27.3,30.24,WSW,248,5.0,9.0,51,0.00,,---,0.00,VWS V14.01,2013-01-08 19:20:00,
2013-01-08 14:25:00,44.3,27.8,30.25,West,270,4.0,9.0,52,0.00,,---,0.00,VWS V14.01,2013-01-08 19:25:00,
2013-01-08 14:30:00,44.2,27.2,30.25,SW,225,4.0,9.0,51,0.00,,---,0.00,VWS V14.01,2013-01-08 19:30:00,
2013-01-08 14:35:00,44.1,27.1,30.25,SW,225,5.0,10.0,51,0.00,,---,0.00,VWS V14.01,2013-01-08 19:35:00,
2013-01-08 14:40:00,44.0,27.5,30.25,WSW,248,4.0,10.0,52,0.00,,---,0.00,VWS V14.01,2013-01-08 19:40:00,
2013-01-08 14:45:00,43.9,27.4,30.25,SW,225,7.0,12.0,52,0.00,,---,0.00,VWS V14.01,2013-01-08 19:45:00,
2013-01-08 14:50:00,43.8,27.3,30.25,WSW,248,4.0,7.0,52,0.00,,---,0.00,VWS V14.01,2013-01-08 19:50:00,
2013-01-08 14:55:00,43.7,27.7,30.25,SSW,202,2.0,7.0,53,0.00,,---,0.00,VWS V14.01,2013-01-08 19:55:00,
2013-01-08 15:00:00,43.6,27.1,30.25,WSW,248,5.0,10.0,52,0.00,,---,0.00,VWS V14.01,2013-01-08 20:00:00,
2013-01-08 15:05:00,43.6,27.6,30.26,WSW,248,4.0,11.0,53,0.00,,---,0.00,VWS V14.01,2013-01-08 20:05:00,
2013-01-08 15:10:00,43.4,27.4,30.25,SSW,202,2.0,5.0,53,0.00,,---,0.00,VWS V14.01,2013-01-08 20:10:00,
2013-01-08 15:15:00,43.1,27.6,30.25,WSW,248,4.0,11.0,54,0.00,,---,0.00,VWS V14.01,2013-01-08 20:15:00,
2013-01-08 15:20:00,42.9,27.4,30.25,SW,225,3.0,6.0,54,0.00,,---,0.00,VWS V14.01,2013-01-08 20:20:00,
2013-01-08 15:25:00,42.8,27.8,30.25,SW,225,4.0,10.0,55,0.00,,---,0.00,VWS V14.01,2013-01-08 20:25:00,
2013-01-08 15:30:00,42.5,27.9,30.25,SW,225,4.0,8.0,56,0.00,,---,0.00,VWS V14.01,2013-01-08 20:30:00,
2013-01-08 15:35:00,42.3,27.7,30.25,SW,225,4.0,6.0,56,0.00,,---,0.00,VWS V14.01,2013-01-08 20:35:00,
2013-01-08 15:40:00,42.4,27.8,30.25,WSW,248,4.0,8.0,56,0.00,,---,0.00,VWS V14.01,2013-01-08 20:40:00,
2013-01-08 15:45:00,42.6,28.0,30.25,SW,225,3.0,6.0,56,0.00,,---,0.00,VWS V14.01,2013-01-08 20:45:00,
2013-01-08 15:50:00,42.6,28.0,30.25,SW,225,4.0,7.0,56,0.00,,---,0.00,VWS V14.01,2013-01-08 20:50:00,
2013-01-08 15:55:00,42.5,27.9,30.25,WSW,248,3.0,8.0,56,0.00,,---,0.00,VWS V14.01,2013-01-08 20:55:00,
2013-01-08 16:00:00,42.4,27.8,30.25,WSW,248,4.0,9.0,56,0.00,,---,0.00,VWS V14.01,2013-01-08 21:00:00,
2013-01-08 16:05:00,41.9,27.8,30.25,WSW,248,3.0,8.0,57,0.00,,---,0.00,VWS V14.01,2013-01-08 21:05:00,
2013-01-08 16:10:00,41.6,27.9,30.25,SW,225,4.0,9.0,58,0.00,,---,0.00,VWS V14.01,2013-01-08 21:10:00,
2013-01-08 16:15:00,41.2,28.0,30.25,SSW,202,3.0,9.0,59,0.00,,---,0.00,VWS V14.01,2013-01-08 21:15:00,
2013-01-08 16:20:00,40.8,27.6,30.25,SW,225,3.0,8.0,59,0.00,,---,0.00,VWS V14.01,2013-01-08 21:20:00,
2013-01-08 16:25:00,40.6,27.4,30.26,SW,225,3.0,6.0,59,0.00,,---,0.00,VWS V14.01,2013-01-08 21:25:00,
2013-01-08 16:30:00,40.5,27.3,30.26,SW,225,4.0,7.0,59,0.00,,---,0.00,VWS V14.01,2013-01-08 21:30:00,
2013-01-08 16:35:00,40.3,27.1,30.26,SW,225,3.0,7.0,59,0.00,,---,0.00,VWS V14.01,2013-01-08 21:35:00,
2013-01-08 16:40:00,40.1,27.4,30.26,SSW,202,3.0,7.0,60,0.00,,---,0.00,VWS V14.01,2013-01-08 21:40:00,
2013-01-08 16:45:00,39.7,27.0,30.26,SW,225,2.0,6.0,60,0.00,,---,0.00,VWS V14.01,2013-01-08 21:45:00,
2013-01-08 16:50:00,39.3,27.0,30.26,SSW,202,1.0,5.0,61,0.00,,---,0.00,VWS V14.01,2013-01-08 21:50:00,
2013-01-08 16:55:00,39.0,26.7,30.26,SSW,202,1.0,4.0,61,0.00,,---,0.00,VWS V14.01,2013-01-08 21:55:00,
2013-01-08 17:00:00,38.7,26.8,30.26,SSW,202,1.0,3.0,62,0.00,,---,0.00,VWS V14.01,2013-01-08 22:00:00,
2013-01-08 17:05:00,38.4,26.9,30.26,South,180,2.0,6.0,63,0.00,,---,0.00,VWS V14.01,2013-01-08 22:05:00,
2013-01-08 17:10:00,38.0,26.9,30.26,SW,225,1.0,4.0,64,0.00,,---,0.00,VWS V14.01,2013-01-08 22:10:00,
2013-01-08 17:15:00,37.8,27.1,30.26,SW,225,0.0,2.0,65,0.00,,---,0.00,VWS V14.01,2013-01-08 22:15:00,
2013-01-08 17:20:00,37.6,27.6,30.27,SW,225,0.0,1.0,67,0.00,,---,0.00,VWS V14.01,2013-01-08 22:20:00,
2013-01-08 17:25:00,37.0,26.7,30.27,SW,225,0.0,2.0,66,0.00,,---,0.00,VWS V14.01,2013-01-08 22:25:00,
2013-01-08 17:30:00,36.2,26.3,30.27,SW,225,0.0,2.0,67,0.00,,---,0.00,VWS V14.01,2013-01-08 22:30:00,
2013-01-08 17:35:00,35.4,26.3,30.27,SW,225,0.0,1.0,69,0.00,,---,0.00,VWS V14.01,2013-01-08 22:35:00,
2013-01-08 17:40:00,34.7,25.9,30.28,SW,225,0.0,3.0,70,0.00,,---,0.00,VWS V14.01,2013-01-08 22:40:00,
2013-01-08 17:45:00,34.3,25.9,30.28,SW,225,0.0,1.0,71,0.00,,---,0.00,VWS V14.01,2013-01-08 22:45:00,
2013-01-08 17:50:00,33.6,25.9,30.28,SW,225,0.0,3.0,73,0.00,,---,0.00,VWS V14.01,2013-01-08 22:50:00,
2013-01-08 17:55:00,33.1,25.7,30.28,SW,225,0.0,1.0,74,0.00,,---,0.00,VWS V14.01,2013-01-08 22:55:00,
2013-01-08 18:00:00,32.8,26.1,30.28,SW,225,0.0,3.0,76,0.00,,---,0.00,VWS V14.01,2013-01-08 23:00:00,
2013-01-08 18:05:00,32.5,26.1,30.28,SW,225,0.0,1.0,77,0.00,,---,0.00,VWS V14.01,2013-01-08 23:05:00,
2013-01-08 18:10:00,32.2,25.8,30.28,SW,225,0.0,1.0,77,0.00,,---,0.00,VWS V14.01,2013-01-08 23:10:00,
2013-01-08 18:15:00,31.8,25.7,30.28,SW,225,0.0,3.0,78,0.00,,---,0.00,VWS V14.01,2013-01-08 23:15:00,
2013-01-08 18:20:00,31.5,25.4,30.29,SW,225,0.0,3.0,78,0.00,,---,0.00,VWS V14.01,2013-01-08 23:20:00,
2013-01-08 18:25:00,31.3,25.6,30.29,SW,225,1.0,4.0,79,0.00,,---,0.00,VWS V14.01,2013-01-08 23:25:00,
2013-01-08 18:30:00,31.1,25.7,30.29,SW,225,0.0,3.0,80,0.00,,---,0.00,VWS V14.01,2013-01-08 23:30:00,
2013-01-08 18:35:00,31.1,26.0,30.29,SW,225,0.0,2.0,81,0.00,,---,0.00,VWS V14.01,2013-01-08 23:35:00,
2013-01-08 18:40:00,31.0,25.6,30.29,SW,225,0.0,1.0,80,0.00,,---,0.00,VWS V14.01,2013-01-08 23:40:00,
2013-01-08 18:45:00,30.9,25.8,30.29,SW,225,0.0,0.0,81,0.00,,---,0.00,VWS V14.01,2013-01-08 23:45:00,
2013-01-08 18:50:00,30.7,25.6,30.30,SW,225,0.0,0.0,81,0.00,,---,0.00,VWS V14.01,2013-01-08 23:50:00,
2013-01-08 18:55:00,30.5,25.4,30.30,SW,225,0.0,0.0,81,0.00,,---,0.00,VWS V14.01,2013-01-08 23:55:00,
2013-01-08 19:00:00,30.3,25.2,30.30,SW,225,0.0,0.0,81,0.00,,---,0.00,VWS V14.01,2013-01-09 00:00:00,
2013-01-08 19:05:00,30.1,25.3,30.31,SW,225,0.0,0.0,82,0.00,,---,0.00,VWS V14.01,2013-01-09 00:05:00,
2013-01-08 19:10:00,29.8,25.0,30.31,SW,225,0.0,0.0,82,0.00,,---,0.00,VWS V14.01,2013-01-09 00:10:00,
2013-01-08 19:15:00,29.6,25.1,30.31,SW,225,0.0,1.0,83,0.00,,---,0.00,VWS V14.01,2013-01-09 00:15:00,
2013-01-08 19:20:00,29.3,24.8,30.31,SW,225,0.0,0.0,83,0.00,,---,0.00,VWS V14.01,2013-01-09 00:20:00,
2013-01-08 19:25:00,29.0,24.5,30.31,SW,225,0.0,0.0,83,0.00,,---,0.00,VWS V14.01,2013-01-09 00:25:00,
2013-01-08 19:30:00,28.7,24.5,30.31,SW,225,0.0,0.0,84,0.00,,---,0.00,VWS V14.01,2013-01-09 00:30:00,
2013-01-08 19:35:00,28.5,24.3,30.31,SW,225,0.0,0.0,84,0.00,,---,0.00,VWS V14.01,2013-01-09 00:35:00,
2013-01-08 19:40:00,28.3,24.4,30.31,SW,225,0.0,0.0,85,0.00,,---,0.00,VWS V14.01,2013-01-09 00:40:00,
2013-01-08 19:45:00,28.2,24.3,30.31,SW,225,0.0,0.0,85,0.00,,---,0.00,VWS V14.01,2013-01-09 00:45:00,
2013-01-08 19:50:00,28.0,24.1,30.31,SW,225,0.0,0.0,85,0.00,,---,0.00,VWS V14.01,2013-01-09 00:50:00,
2013-01-08 19:55:00,27.9,24.3,30.31,SW,225,0.0,0.0,86,0.00,,---,0.00,VWS V14.01,2013-01-09 00:55:00,
2013-01-08 20:00:00,27.9,24.3,30.32,SW,225,0.0,0.0,86,0.00,,---,0.00,VWS V14.01,2013-01-09 01:00:00,
2013-01-08 20:05:00,28.0,24.6,30.32,SW,225,0.0,0.0,87,0.00,,---,0.00,VWS V14.01,2013-01-09 01:05:00,
2013-01-08 20:10:00,27.9,24.5,30.32,SW,225,0.0,0.0,87,0.00,,---,0.00,VWS V14.01,2013-01-09 01:10:00,
2013-01-08 20:15:00,27.8,24.4,30.32,SW,225,0.0,0.0,87,0.00,,---,0.00,VWS V14.01,2013-01-09 01:15:00,
2013-01-08 20:20:00,27.6,24.2,30.33,SW,225,0.0,0.0,87,0.00,,---,0.00,VWS V14.01,2013-01-09 01:20:00,
2013-01-08 20:25:00,27.5,24.1,30.33,SW,225,0.0,0.0,87,0.00,,---,0.00,VWS V14.01,2013-01-09 01:25:00,
2013-01-08 20:30:00,27.4,24.3,30.33,SW,225,0.0,0.0,88,0.00,,---,0.00,VWS V14.01,2013-01-09 01:30:00,
2013-01-08 20:35:00,27.4,24.3,30.33,SW,225,0.0,0.0,88,0.00,,---,0.00,VWS V14.01,2013-01-09 01:35:00,
2013-01-08 20:40:00,27.2,24.1,30.32,SW,225,0.0,0.0,88,0.00,,---,0.00,VWS V14.01,2013-01-09 01:40:00,
2013-01-08 20:45:00,27.1,24.0,30.33,SW,225,0.0,0.0,88,0.00,,---,0.00,VWS V14.01,2013-01-09 01:45:00,
2013-01-08 20:50:00,27.0,23.9,30.33,SW,225,0.0,0.0,88,0.00,,---,0.00,VWS V14.01,2013-01-09 01:50:00,
2013-01-08 20:55:00,26.9,23.8,30.33,SW,225,0.0,0.0,88,0.00,,---,0.00,VWS V14.01,2013-01-09 01:55:00,
2013-01-08 21:00:00,26.8,24.0,30.32,SW,225,0.0,1.0,89,0.00,,---,0.00,VWS V14.01,2013-01-09 02:00:00,
2013-01-08 21:05:00,26.7,23.9,30.32,SW,225,0.0,1.0,89,0.00,,---,0.00,VWS V14.01,2013-01-09 02:05:00,
2013-01-08 21:10:00,26.7,23.9,30.32,SW,225,0.0,0.0,89,0.00,,---,0.00,VWS V14.01,2013-01-09 02:10:00,
2013-01-08 21:15:00,26.6,23.8,30.32,SW,225,0.0,1.0,89,0.00,,---,0.00,VWS V14.01,2013-01-09 02:15:00,
2013-01-08 21:20:00,26.4,23.9,30.32,SW,225,0.0,2.0,90,0.00,,---,0.00,VWS V14.01,2013-01-09 02:20:00,
2013-01-08 21:25:00,26.6,24.3,30.32,SW,225,0.0,1.0,91,0.00,,---,0.00,VWS V14.01,2013-01-09 02:25:00,
2013-01-08 21:30:00,26.7,24.2,30.32,SW,225,0.0,0.0,90,0.00,,---,0.00,VWS V14.01,2013-01-09 02:30:00,
2013-01-08 21:35:00,26.7,24.2,30.32,SW,225,0.0,0.0,90,0.00,,---,0.00,VWS V14.01,2013-01-09 02:35:00,
2013-01-08 21:40:00,26.6,24.1,30.32,SW,225,0.0,0.0,90,0.00,,---,0.00,VWS V14.01,2013-01-09 02:40:00,
2013-01-08 21:45:00,26.5,24.0,30.32,SW,225,0.0,1.0,90,0.00,,---,0.00,VWS V14.01,2013-01-09 02:45:00,
2013-01-08 21:50:00,26.4,23.9,30.32,SW,225,0.0,1.0,90,0.00,,---,0.00,VWS V14.01,2013-01-09 02:50:00,
2013-01-08 21:55:00,26.3,23.8,30.31,SW,225,1.0,3.0,90,0.00,,---,0.00,VWS V14.01,2013-01-09 02:55:00,
2013-01-08 22:00:00,26.4,24.1,30.32,SW,225,0.0,1.0,91,0.00,,---,0.00,VWS V14.01,2013-01-09 03:00:00,
2013-01-08 22:05:00,26.5,24.2,30.32,SW,225,0.0,0.0,91,0.00,,---,0.00,VWS V14.01,2013-01-09 03:05:00,
2013-01-08 22:10:00,26.5,24.2,30.32,SW,225,0.0,0.0,91,0.00,,---,0.00,VWS V14.01,2013-01-09 03:10:00,
2013-01-08 22:15:00,26.5,24.2,30.33,SW,225,0.0,1.0,91,0.00,,---,0.00,VWS V14.01,2013-01-09 03:15:00,
2013-01-08 22:20:00,26.5,24.2,30.33,SW,225,0.0,2.0,91,0.00,,---,0.00,VWS V14.01,2013-01-09 03:20:00,
2013-01-08 22:25:00,26.5,24.2,30.33,SW,225,0.0,3.0,91,0.00,,---,0.00,VWS V14.01,2013-01-09 03:25:00,
2013-01-08 22:30:00,26.4,24.1,30.33,SW,225,0.0,0.0,91,0.00,,---,0.00,VWS V14.01,2013-01-09 03:30:00,
2013-01-08 22:35:00,26.5,24.2,30.33,SW,225,0.0,0.0,91,0.00,,---,0.00,VWS V14.01,2013-01-09 03:35:00,
2013-01-08 22:40:00,26.5,24.2,30.32,SW,225,0.0,0.0,91,0.00,,---,0.00,VWS V14.01,2013-01-09 03:40:00,
2013-01-08 22:45:00,26.5,24.2,30.32,SW,225,0.0,0.0,91,0.00,,---,0.00,VWS V14.01,2013-01-09 03:45:00,
2013-01-08 22:50:00,26.5,24.2,30.32,SW,225,0.0,0.0,91,0.00,,---,0.00,VWS V14.01,2013-01-09 03:50:00,
2013-01-08 22:55:00,26.6,24.6,30.33,SW,225,0.0,0.0,92,0.00,,---,0.00,VWS V14.01,2013-01-09 03:55:00,
2013-01-08 23:00:00,26.7,24.7,30.33,SW,225,0.0,1.0,92,0.00,,---,0.00,VWS V14.01,2013-01-09 04:00:00,
2013-01-08 23:05:00,26.9,24.9,30.33,SW,225,0.0,0.0,92,0.00,,---,0.00,VWS V14.01,2013-01-09 04:05:00,
2013-01-08 23:10:00,26.9,24.9,30.33,SW,225,0.0,0.0,92,0.00,,---,0.00,VWS V14.01,2013-01-09 04:10:00,
2013-01-08 23:15:00,26.9,24.6,30.33,SW,225,0.0,0.0,91,0.00,,---,0.00,VWS V14.01,2013-01-09 04:15:00,
2013-01-08 23:20:00,26.9,24.6,30.33,SW,225,0.0,0.0,91,0.00,,---,0.00,VWS V14.01,2013-01-09 04:20:00,
2013-01-08 23:25:00,26.8,24.5,30.33,SW,225,0.0,0.0,91,0.00,,---,0.00,VWS V14.01,2013-01-09 04:25:00,
2013-01-08 23:30:00,26.7,24.4,30.33,SW,225,0.0,0.0,91,0.00,,---,0.00,VWS V14.01,2013-01-09 04:30:00,
2013-01-08 23:35:00,26.6,24.3,30.33,SW,225,0.0,0.0,91,0.00,,---,0.00,VWS V14.01,2013-01-09 04:35:00,
2013-01-08 23:40:00,26.5,24.5,30.33,SW,225,0.0,1.0,92,0.00,,---,0.00,VWS V14.01,2013-01-09 04:40:00,
2013-01-08 23:45:00,26.5,24.5,30.33,SW,225,0.0,0.0,92,0.00,,---,0.00,VWS V14.01,2013-01-09 04:45:00,
2013-01-08 23:50:00,26.4,24.4,30.33,SW,225,0.0,0.0,92,0.00,,---,0.00,VWS V14.01,2013-01-09 04:50:00,
2013-01-08 23:55:00,26.3,24.3,30.34,SW,225,0.0,0.0,92,0.00,,---,0.00,VWS V14.01,2013-01-09 04:55:00,